sensor_id;sensor_type;location;lat;lon;timestamp;P1;durP1;ratioP1;P2;durP2;ratioP2
80961;SDS011;70424;55.154;14.722;2023-09-19T00:00:33;7.78;;;4.72;;
80961;SDS011;70424;55.154;14.722;2023-09-19T00:02:59;9.43;;;5.30;;
80961;SDS011;70424;55.154;14.722;2023-09-19T00:05:25;7.97;;;4.75;;
80961;SDS011;70424;55.154;14.722;2023-09-19T00:07:53;8.35;;;4.78;;
80961;SDS011;70424;55.154;14.722;2023-09-19T00:10:22;7.97;;;4.80;;
80961;SDS011;70424;55.154;14.722;2023-09-19T00:12:54;9.27;;;5.47;;
80961;SDS011;70424;55.154;14.722;2023-09-19T00:15:20;8.52;;;4.97;;
80961;SDS011;70424;55.154;14.722;2023-09-19T00:17:46;12.68;;;5.43;;
80961;SDS011;70424;55.154;14.722;2023-09-19T00:20:13;10.05;;;5.47;;
80961;SDS011;70424;55.154;14.722;2023-09-19T00:22:42;7.78;;;5.43;;
80961;SDS011;70424;55.154;14.722;2023-09-19T00:25:08;11.95;;;6.22;;
80961;SDS011;70424;55.154;14.722;2023-09-19T00:27:39;10.27;;;5.38;;
80961;SDS011;70424;55.154;14.722;2023-09-19T00:30:09;9.85;;;5.28;;
80961;SDS011;70424;55.154;14.722;2023-09-19T00:32:39;8.52;;;5.03;;
80961;SDS011;70424;55.154;14.722;2023-09-19T00:35:06;9.52;;;5.00;;
80961;SDS011;70424;55.154;14.722;2023-09-19T00:37:33;10.45;;;4.97;;
80961;SDS011;70424;55.154;14.722;2023-09-19T00:39:59;8.27;;;5.30;;
80961;SDS011;70424;55.154;14.722;2023-09-19T00:42:24;10.35;;;5.25;;
80961;SDS011;70424;55.154;14.722;2023-09-19T00:44:50;8.80;;;4.93;;
80961;SDS011;70424;55.154;14.722;2023-09-19T00:47:16;8.85;;;4.80;;
80961;SDS011;70424;55.154;14.722;2023-09-19T00:49:43;9.23;;;5.45;;
80961;SDS011;70424;55.154;14.722;2023-09-19T00:52:14;8.40;;;5.18;;
80961;SDS011;70424;55.154;14.722;2023-09-19T00:54:39;8.20;;;4.70;;
80961;SDS011;70424;55.154;14.722;2023-09-19T00:57:05;8.32;;;4.82;;
80961;SDS011;70424;55.154;14.722;2023-09-19T00:59:32;7.38;;;4.80;;
80961;SDS011;70424;55.154;14.722;2023-09-19T01:02:00;8.77;;;4.93;;
80961;SDS011;70424;55.154;14.722;2023-09-19T01:04:27;8.32;;;4.72;;
80961;SDS011;70424;55.154;14.722;2023-09-19T01:06:52;9.07;;;4.78;;
80961;SDS011;70424;55.154;14.722;2023-09-19T01:09:19;11.20;;;4.93;;
80961;SDS011;70424;55.154;14.722;2023-09-19T01:11:46;9.07;;;4.95;;
80961;SDS011;70424;55.154;14.722;2023-09-19T01:17:09;9.07;;;5.18;;
80961;SDS011;70424;55.154;14.722;2023-09-19T01:23:01;10.55;;;4.95;;
80961;SDS011;70424;55.154;14.722;2023-09-19T01:31:06;7.43;;;4.88;;
80961;SDS011;70424;55.154;14.722;2023-09-19T01:33:55;10.23;;;5.35;;
80961;SDS011;70424;55.154;14.722;2023-09-19T01:36:22;9.93;;;4.78;;
80961;SDS011;70424;55.154;14.722;2023-09-19T01:38:49;9.60;;;4.93;;
80961;SDS011;70424;55.154;14.722;2023-09-19T01:41:16;8.85;;;4.88;;
80961;SDS011;70424;55.154;14.722;2023-09-19T01:43:49;9.20;;;4.93;;
80961;SDS011;70424;55.154;14.722;2023-09-19T01:46:21;10.73;;;5.03;;
80961;SDS011;70424;55.154;14.722;2023-09-19T01:48:58;11.57;;;5.22;;
80961;SDS011;70424;55.154;14.722;2023-09-19T01:54:00;8.90;;;4.72;;
80961;SDS011;70424;55.154;14.722;2023-09-19T01:56:40;9.25;;;5.00;;
80961;SDS011;70424;55.154;14.722;2023-09-19T01:59:25;7.22;;;4.30;;
80961;SDS011;70424;55.154;14.722;2023-09-19T02:01:53;8.05;;;4.47;;
80961;SDS011;70424;55.154;14.722;2023-09-19T02:04:20;10.03;;;4.57;;
80961;SDS011;70424;55.154;14.722;2023-09-19T02:06:45;7.97;;;4.60;;
80961;SDS011;70424;55.154;14.722;2023-09-19T02:09:12;12.73;;;4.40;;
80961;SDS011;70424;55.154;14.722;2023-09-19T02:11:39;8.75;;;4.25;;
80961;SDS011;70424;55.154;14.722;2023-09-19T02:14:05;8.60;;;4.65;;
80961;SDS011;70424;55.154;14.722;2023-09-19T02:16:33;11.88;;;4.63;;
80961;SDS011;70424;55.154;14.722;2023-09-19T02:18:59;7.75;;;4.18;;
80961;SDS011;70424;55.154;14.722;2023-09-19T02:21:25;11.15;;;4.45;;
80961;SDS011;70424;55.154;14.722;2023-09-19T02:23:51;7.78;;;4.10;;
80961;SDS011;70424;55.154;14.722;2023-09-19T02:26:16;7.80;;;4.07;;
80961;SDS011;70424;55.154;14.722;2023-09-19T02:28:43;9.13;;;4.68;;
80961;SDS011;70424;55.154;14.722;2023-09-19T02:31:10;8.27;;;4.03;;
80961;SDS011;70424;55.154;14.722;2023-09-19T02:33:36;9.98;;;4.30;;
80961;SDS011;70424;55.154;14.722;2023-09-19T02:36:02;8.52;;;4.30;;
80961;SDS011;70424;55.154;14.722;2023-09-19T02:38:28;10.70;;;4.65;;
80961;SDS011;70424;55.154;14.722;2023-09-19T02:40:54;8.63;;;3.97;;
80961;SDS011;70424;55.154;14.722;2023-09-19T02:43:20;9.52;;;4.82;;
80961;SDS011;70424;55.154;14.722;2023-09-19T02:45:46;9.20;;;4.50;;
80961;SDS011;70424;55.154;14.722;2023-09-19T02:48:11;10.75;;;4.13;;
80961;SDS011;70424;55.154;14.722;2023-09-19T02:50:37;8.43;;;4.15;;
80961;SDS011;70424;55.154;14.722;2023-09-19T02:53:05;8.45;;;4.20;;
80961;SDS011;70424;55.154;14.722;2023-09-19T02:55:31;8.95;;;4.10;;
80961;SDS011;70424;55.154;14.722;2023-09-19T02:57:57;11.63;;;4.80;;
80961;SDS011;70424;55.154;14.722;2023-09-19T03:00:23;7.68;;;3.90;;
80961;SDS011;70424;55.154;14.722;2023-09-19T03:02:58;7.03;;;4.07;;
80961;SDS011;70424;55.154;14.722;2023-09-19T03:05:24;8.70;;;4.38;;
80961;SDS011;70424;55.154;14.722;2023-09-19T03:07:51;8.63;;;4.32;;
80961;SDS011;70424;55.154;14.722;2023-09-19T03:10:17;8.20;;;4.00;;
80961;SDS011;70424;55.154;14.722;2023-09-19T03:12:46;7.10;;;3.83;;
80961;SDS011;70424;55.154;14.722;2023-09-19T03:15:12;9.48;;;3.67;;
80961;SDS011;70424;55.154;14.722;2023-09-19T03:17:42;8.73;;;3.90;;
80961;SDS011;70424;55.154;14.722;2023-09-19T03:20:08;7.93;;;3.92;;
80961;SDS011;70424;55.154;14.722;2023-09-19T03:25:01;6.20;;;3.50;;
80961;SDS011;70424;55.154;14.722;2023-09-19T03:27:27;6.65;;;3.25;;
80961;SDS011;70424;55.154;14.722;2023-09-19T03:29:52;6.88;;;3.33;;
80961;SDS011;70424;55.154;14.722;2023-09-19T03:32:18;7.72;;;3.33;;
80961;SDS011;70424;55.154;14.722;2023-09-19T03:34:44;7.30;;;3.50;;
80961;SDS011;70424;55.154;14.722;2023-09-19T03:37:09;5.00;;;3.30;;
80961;SDS011;70424;55.154;14.722;2023-09-19T03:39:35;7.22;;;3.45;;
80961;SDS011;70424;55.154;14.722;2023-09-19T03:42:00;6.07;;;3.28;;
80961;SDS011;70424;55.154;14.722;2023-09-19T03:44:28;5.88;;;3.13;;
80961;SDS011;70424;55.154;14.722;2023-09-19T03:46:53;5.60;;;3.30;;
80961;SDS011;70424;55.154;14.722;2023-09-19T03:49:20;8.15;;;2.88;;
80961;SDS011;70424;55.154;14.722;2023-09-19T03:51:46;4.97;;;2.80;;
80961;SDS011;70424;55.154;14.722;2023-09-19T03:54:11;6.15;;;2.50;;
80961;SDS011;70424;55.154;14.722;2023-09-19T03:56:37;4.90;;;3.03;;
80961;SDS011;70424;55.154;14.722;2023-09-19T03:59:03;5.82;;;2.88;;
80961;SDS011;70424;55.154;14.722;2023-09-19T04:01:28;5.18;;;2.80;;
80961;SDS011;70424;55.154;14.722;2023-09-19T04:03:56;5.68;;;2.90;;
80961;SDS011;70424;55.154;14.722;2023-09-19T04:06:22;6.68;;;2.85;;
80961;SDS011;70424;55.154;14.722;2023-09-19T04:08:47;5.68;;;2.78;;
80961;SDS011;70424;55.154;14.722;2023-09-19T04:11:13;7.22;;;2.95;;
80961;SDS011;70424;55.154;14.722;2023-09-19T04:13:39;5.15;;;2.40;;
80961;SDS011;70424;55.154;14.722;2023-09-19T04:16:04;5.07;;;2.03;;
80961;SDS011;70424;55.154;14.722;2023-09-19T04:18:31;5.38;;;2.30;;
80961;SDS011;70424;55.154;14.722;2023-09-19T04:20:58;5.00;;;1.98;;
80961;SDS011;70424;55.154;14.722;2023-09-19T04:23:26;5.50;;;2.20;;
80961;SDS011;70424;55.154;14.722;2023-09-19T04:25:53;4.82;;;2.25;;
80961;SDS011;70424;55.154;14.722;2023-09-19T04:28:18;5.03;;;2.20;;
80961;SDS011;70424;55.154;14.722;2023-09-19T04:30:44;5.43;;;2.13;;
80961;SDS011;70424;55.154;14.722;2023-09-19T04:33:09;5.88;;;2.10;;
80961;SDS011;70424;55.154;14.722;2023-09-19T04:35:34;5.50;;;2.20;;
80961;SDS011;70424;55.154;14.722;2023-09-19T04:38:00;6.28;;;2.30;;
80961;SDS011;70424;55.154;14.722;2023-09-19T04:40:26;6.43;;;2.22;;
80961;SDS011;70424;55.154;14.722;2023-09-19T04:42:55;7.85;;;2.63;;
80961;SDS011;70424;55.154;14.722;2023-09-19T04:45:24;7.30;;;2.50;;
80961;SDS011;70424;55.154;14.722;2023-09-19T04:47:51;6.57;;;2.40;;
80961;SDS011;70424;55.154;14.722;2023-09-19T04:50:17;6.15;;;2.10;;
80961;SDS011;70424;55.154;14.722;2023-09-19T04:52:42;4.95;;;2.40;;
80961;SDS011;70424;55.154;14.722;2023-09-19T04:55:15;5.32;;;2.40;;
80961;SDS011;70424;55.154;14.722;2023-09-19T04:57:47;7.70;;;2.10;;
80961;SDS011;70424;55.154;14.722;2023-09-19T05:00:17;7.10;;;2.17;;
80961;SDS011;70424;55.154;14.722;2023-09-19T05:02:43;6.60;;;2.60;;
80961;SDS011;70424;55.154;14.722;2023-09-19T05:05:09;6.03;;;2.33;;
80961;SDS011;70424;55.154;14.722;2023-09-19T05:07:40;7.03;;;2.13;;
80961;SDS011;70424;55.154;14.722;2023-09-19T05:10:06;4.90;;;2.10;;
80961;SDS011;70424;55.154;14.722;2023-09-19T05:12:35;5.20;;;2.17;;
80961;SDS011;70424;55.154;14.722;2023-09-19T05:15:04;6.03;;;2.38;;
80961;SDS011;70424;55.154;14.722;2023-09-19T05:17:31;5.57;;;2.33;;
80961;SDS011;70424;55.154;14.722;2023-09-19T05:19:57;6.65;;;2.58;;
80961;SDS011;70424;55.154;14.722;2023-09-19T05:22:23;7.95;;;2.50;;
80961;SDS011;70424;55.154;14.722;2023-09-19T05:24:50;6.72;;;2.13;;
80961;SDS011;70424;55.154;14.722;2023-09-19T05:27:16;6.47;;;2.38;;
80961;SDS011;70424;55.154;14.722;2023-09-19T05:29:42;5.90;;;2.20;;
80961;SDS011;70424;55.154;14.722;2023-09-19T05:32:09;5.97;;;2.35;;
80961;SDS011;70424;55.154;14.722;2023-09-19T05:34:35;7.13;;;2.60;;
80961;SDS011;70424;55.154;14.722;2023-09-19T05:37:01;7.43;;;2.45;;
80961;SDS011;70424;55.154;14.722;2023-09-19T05:39:26;6.20;;;2.47;;
80961;SDS011;70424;55.154;14.722;2023-09-19T05:41:52;5.95;;;2.50;;
80961;SDS011;70424;55.154;14.722;2023-09-19T05:44:17;8.82;;;2.47;;
80961;SDS011;70424;55.154;14.722;2023-09-19T05:46:42;5.10;;;2.10;;
80961;SDS011;70424;55.154;14.722;2023-09-19T05:49:08;8.05;;;2.50;;
80961;SDS011;70424;55.154;14.722;2023-09-19T05:51:33;6.75;;;2.20;;
80961;SDS011;70424;55.154;14.722;2023-09-19T05:53:58;6.22;;;2.47;;
80961;SDS011;70424;55.154;14.722;2023-09-19T05:56:24;7.57;;;2.55;;
80961;SDS011;70424;55.154;14.722;2023-09-19T05:58:50;8.23;;;2.40;;
80961;SDS011;70424;55.154;14.722;2023-09-19T06:01:17;9.13;;;2.40;;
80961;SDS011;70424;55.154;14.722;2023-09-19T06:03:43;6.82;;;2.33;;
80961;SDS011;70424;55.154;14.722;2023-09-19T06:06:08;7.70;;;2.75;;
80961;SDS011;70424;55.154;14.722;2023-09-19T06:08:34;6.03;;;2.50;;
80961;SDS011;70424;55.154;14.722;2023-09-19T06:10:59;7.03;;;2.80;;
80961;SDS011;70424;55.154;14.722;2023-09-19T06:13:27;7.60;;;2.47;;
80961;SDS011;70424;55.154;14.722;2023-09-19T06:15:54;7.80;;;3.17;;
80961;SDS011;70424;55.154;14.722;2023-09-19T06:18:21;6.63;;;2.83;;
80961;SDS011;70424;55.154;14.722;2023-09-19T06:20:47;7.68;;;3.05;;
80961;SDS011;70424;55.154;14.722;2023-09-19T06:23:13;8.80;;;2.80;;
80961;SDS011;70424;55.154;14.722;2023-09-19T06:25:39;5.55;;;2.88;;
80961;SDS011;70424;55.154;14.722;2023-09-19T06:28:05;4.45;;;2.15;;
80961;SDS011;70424;55.154;14.722;2023-09-19T06:30:33;7.13;;;2.65;;
80961;SDS011;70424;55.154;14.722;2023-09-19T06:32:59;8.95;;;2.80;;
80961;SDS011;70424;55.154;14.722;2023-09-19T06:35:25;5.93;;;2.33;;
80961;SDS011;70424;55.154;14.722;2023-09-19T06:37:52;4.18;;;2.00;;
80961;SDS011;70424;55.154;14.722;2023-09-19T06:40:17;6.03;;;2.45;;
80961;SDS011;70424;55.154;14.722;2023-09-19T06:42:45;6.00;;;2.47;;
80961;SDS011;70424;55.154;14.722;2023-09-19T06:45:12;5.38;;;2.40;;
80961;SDS011;70424;55.154;14.722;2023-09-19T06:47:42;6.10;;;2.38;;
80961;SDS011;70424;55.154;14.722;2023-09-19T06:50:08;5.45;;;2.20;;
80961;SDS011;70424;55.154;14.722;2023-09-19T06:52:38;6.28;;;2.47;;
80961;SDS011;70424;55.154;14.722;2023-09-19T06:55:05;8.05;;;2.75;;
80961;SDS011;70424;55.154;14.722;2023-09-19T06:57:31;7.75;;;2.40;;
80961;SDS011;70424;55.154;14.722;2023-09-19T06:59:57;5.35;;;2.45;;
80961;SDS011;70424;55.154;14.722;2023-09-19T07:02:22;8.63;;;2.50;;
80961;SDS011;70424;55.154;14.722;2023-09-19T07:04:47;7.10;;;2.20;;
80961;SDS011;70424;55.154;14.722;2023-09-19T07:07:14;6.88;;;2.72;;
80961;SDS011;70424;55.154;14.722;2023-09-19T07:09:40;7.70;;;2.30;;
80961;SDS011;70424;55.154;14.722;2023-09-19T07:12:07;7.57;;;2.70;;
80961;SDS011;70424;55.154;14.722;2023-09-19T07:14:32;7.00;;;2.63;;
80961;SDS011;70424;55.154;14.722;2023-09-19T07:16:58;7.05;;;2.65;;
80961;SDS011;70424;55.154;14.722;2023-09-19T07:19:25;8.40;;;2.90;;
80961;SDS011;70424;55.154;14.722;2023-09-19T07:21:53;7.97;;;2.60;;
80961;SDS011;70424;55.154;14.722;2023-09-19T07:24:18;8.65;;;2.72;;
80961;SDS011;70424;55.154;14.722;2023-09-19T07:26:45;9.60;;;2.80;;
80961;SDS011;70424;55.154;14.722;2023-09-19T07:29:10;6.65;;;2.60;;
80961;SDS011;70424;55.154;14.722;2023-09-19T07:31:36;8.80;;;3.00;;
80961;SDS011;70424;55.154;14.722;2023-09-19T07:34:01;4.85;;;2.38;;
80961;SDS011;70424;55.154;14.722;2023-09-19T07:36:28;5.95;;;2.65;;
80961;SDS011;70424;55.154;14.722;2023-09-19T07:38:54;6.45;;;3.03;;
80961;SDS011;70424;55.154;14.722;2023-09-19T07:41:20;6.20;;;2.60;;
80961;SDS011;70424;55.154;14.722;2023-09-19T07:43:46;6.65;;;2.50;;
80961;SDS011;70424;55.154;14.722;2023-09-19T07:46:11;5.75;;;2.50;;
80961;SDS011;70424;55.154;14.722;2023-09-19T07:48:37;6.55;;;2.80;;
80961;SDS011;70424;55.154;14.722;2023-09-19T07:51:04;5.35;;;2.45;;
80961;SDS011;70424;55.154;14.722;2023-09-19T07:56:03;5.13;;;2.65;;
80961;SDS011;70424;55.154;14.722;2023-09-19T07:58:30;8.20;;;3.15;;
80961;SDS011;70424;55.154;14.722;2023-09-19T08:00:56;5.80;;;2.65;;
80961;SDS011;70424;55.154;14.722;2023-09-19T08:03:21;6.55;;;2.22;;
80961;SDS011;70424;55.154;14.722;2023-09-19T08:05:47;7.10;;;2.78;;
80961;SDS011;70424;55.154;14.722;2023-09-19T08:08:14;6.72;;;2.53;;
80961;SDS011;70424;55.154;14.722;2023-09-19T08:10:40;5.22;;;2.10;;
80961;SDS011;70424;55.154;14.722;2023-09-19T08:13:07;7.93;;;2.50;;
80961;SDS011;70424;55.154;14.722;2023-09-19T08:15:36;5.53;;;2.58;;
80961;SDS011;70424;55.154;14.722;2023-09-19T08:18:08;5.82;;;2.17;;
80961;SDS011;70424;55.154;14.722;2023-09-19T08:20:35;7.43;;;2.47;;
80961;SDS011;70424;55.154;14.722;2023-09-19T08:23:03;7.75;;;2.42;;
80961;SDS011;70424;55.154;14.722;2023-09-19T08:25:28;6.07;;;2.70;;
80961;SDS011;70424;55.154;14.722;2023-09-19T08:27:54;8.48;;;2.80;;
80961;SDS011;70424;55.154;14.722;2023-09-19T08:30:23;10.55;;;2.88;;
80961;SDS011;70424;55.154;14.722;2023-09-19T08:32:49;8.40;;;2.78;;
80961;SDS011;70424;55.154;14.722;2023-09-19T08:35:23;7.68;;;2.65;;
80961;SDS011;70424;55.154;14.722;2023-09-19T08:37:48;6.50;;;2.50;;
80961;SDS011;70424;55.154;14.722;2023-09-19T08:40:14;8.07;;;3.00;;
80961;SDS011;70424;55.154;14.722;2023-09-19T08:42:55;7.43;;;2.60;;
80961;SDS011;70424;55.154;14.722;2023-09-19T08:45:22;8.07;;;2.38;;
80961;SDS011;70424;55.154;14.722;2023-09-19T08:53:41;7.90;;;2.63;;
80961;SDS011;70424;55.154;14.722;2023-09-19T08:56:14;8.10;;;2.53;;
80961;SDS011;70424;55.154;14.722;2023-09-19T08:58:59;6.18;;;2.47;;
80961;SDS011;70424;55.154;14.722;2023-09-19T09:01:27;7.22;;;2.65;;
80961;SDS011;70424;55.154;14.722;2023-09-19T09:03:54;7.82;;;2.55;;
80961;SDS011;70424;55.154;14.722;2023-09-19T09:06:20;8.43;;;2.95;;
80961;SDS011;70424;55.154;14.722;2023-09-19T09:08:47;8.77;;;2.45;;
80961;SDS011;70424;55.154;14.722;2023-09-19T09:11:15;8.45;;;2.50;;
80961;SDS011;70424;55.154;14.722;2023-09-19T09:13:42;8.13;;;2.60;;
80961;SDS011;70424;55.154;14.722;2023-09-19T09:16:09;7.10;;;2.50;;
80961;SDS011;70424;55.154;14.722;2023-09-19T09:18:35;9.20;;;2.55;;
80961;SDS011;70424;55.154;14.722;2023-09-19T09:21:01;7.55;;;2.85;;
80961;SDS011;70424;55.154;14.722;2023-09-19T09:23:26;6.75;;;2.45;;
80961;SDS011;70424;55.154;14.722;2023-09-19T09:25:54;7.65;;;2.55;;
80961;SDS011;70424;55.154;14.722;2023-09-19T09:28:32;10.65;;;2.72;;
80961;SDS011;70424;55.154;14.722;2023-09-19T09:31:00;7.55;;;2.55;;
80961;SDS011;70424;55.154;14.722;2023-09-19T09:33:28;11.82;;;2.90;;
80961;SDS011;70424;55.154;14.722;2023-09-19T09:36:00;8.93;;;2.85;;
80961;SDS011;70424;55.154;14.722;2023-09-19T09:38:29;8.73;;;2.67;;
80961;SDS011;70424;55.154;14.722;2023-09-19T09:41:08;9.50;;;2.60;;
80961;SDS011;70424;55.154;14.722;2023-09-19T09:43:35;10.52;;;2.70;;
80961;SDS011;70424;55.154;14.722;2023-09-19T09:48:47;10.95;;;2.92;;
80961;SDS011;70424;55.154;14.722;2023-09-19T09:51:42;11.40;;;2.60;;
80961;SDS011;70424;55.154;14.722;2023-09-19T09:54:14;9.00;;;2.88;;
80961;SDS011;70424;55.154;14.722;2023-09-19T09:57:00;5.95;;;2.17;;
80961;SDS011;70424;55.154;14.722;2023-09-19T09:59:45;8.45;;;2.53;;
80961;SDS011;70424;55.154;14.722;2023-09-19T10:02:12;9.55;;;2.90;;
80961;SDS011;70424;55.154;14.722;2023-09-19T10:04:38;8.20;;;2.53;;
80961;SDS011;70424;55.154;14.722;2023-09-19T10:07:29;7.45;;;2.50;;
80961;SDS011;70424;55.154;14.722;2023-09-19T10:10:01;10.60;;;3.08;;
80961;SDS011;70424;55.154;14.722;2023-09-19T10:12:48;11.48;;;3.20;;
80961;SDS011;70424;55.154;14.722;2023-09-19T10:15:18;9.15;;;2.85;;
80961;SDS011;70424;55.154;14.722;2023-09-19T10:17:47;8.38;;;2.63;;
80961;SDS011;70424;55.154;14.722;2023-09-19T10:20:13;9.20;;;2.70;;
80961;SDS011;70424;55.154;14.722;2023-09-19T10:23:00;9.90;;;2.78;;
80961;SDS011;70424;55.154;14.722;2023-09-19T10:25:29;9.85;;;3.08;;
80961;SDS011;70424;55.154;14.722;2023-09-19T10:27:55;9.87;;;2.63;;
80961;SDS011;70424;55.154;14.722;2023-09-19T10:30:23;5.75;;;2.30;;
80961;SDS011;70424;55.154;14.722;2023-09-19T10:32:53;8.13;;;2.70;;
80961;SDS011;70424;55.154;14.722;2023-09-19T10:35:23;9.70;;;2.50;;
80961;SDS011;70424;55.154;14.722;2023-09-19T10:37:49;8.75;;;2.30;;
80961;SDS011;70424;55.154;14.722;2023-09-19T10:42:43;8.43;;;2.47;;
80961;SDS011;70424;55.154;14.722;2023-09-19T10:45:11;8.30;;;2.85;;
80961;SDS011;70424;55.154;14.722;2023-09-19T10:47:40;7.70;;;2.38;;
80961;SDS011;70424;55.154;14.722;2023-09-19T10:50:06;10.52;;;2.80;;
80961;SDS011;70424;55.154;14.722;2023-09-19T10:52:39;8.75;;;2.38;;
80961;SDS011;70424;55.154;14.722;2023-09-19T10:55:07;7.00;;;2.47;;
80961;SDS011;70424;55.154;14.722;2023-09-19T10:57:34;9.63;;;2.35;;
80961;SDS011;70424;55.154;14.722;2023-09-19T11:00:02;9.82;;;2.63;;
80961;SDS011;70424;55.154;14.722;2023-09-19T11:03:05;7.93;;;2.40;;
80961;SDS011;70424;55.154;14.722;2023-09-19T11:05:39;7.03;;;2.38;;
80961;SDS011;70424;55.154;14.722;2023-09-19T11:08:05;7.45;;;2.28;;
80961;SDS011;70424;55.154;14.722;2023-09-19T11:26:47;7.38;;;2.50;;
80961;SDS011;70424;55.154;14.722;2023-09-19T11:31:56;7.30;;;2.05;;
80961;SDS011;70424;55.154;14.722;2023-09-19T11:34:44;8.05;;;2.33;;
80961;SDS011;70424;55.154;14.722;2023-09-19T11:39:38;5.73;;;1.97;;
80961;SDS011;70424;55.154;14.722;2023-09-19T11:45:06;5.28;;;1.65;;
80961;SDS011;70424;55.154;14.722;2023-09-19T11:47:31;6.95;;;1.90;;
80961;SDS011;70424;55.154;14.722;2023-09-19T11:50:00;8.15;;;2.33;;
80961;SDS011;70424;55.154;14.722;2023-09-19T11:52:26;5.75;;;1.83;;
80961;SDS011;70424;55.154;14.722;2023-09-19T11:54:59;5.50;;;1.77;;
80961;SDS011;70424;55.154;14.722;2023-09-19T11:57:26;7.05;;;1.92;;
80961;SDS011;70424;55.154;14.722;2023-09-19T11:59:55;6.10;;;1.92;;
80961;SDS011;70424;55.154;14.722;2023-09-19T12:02:38;6.80;;;2.10;;
80961;SDS011;70424;55.154;14.722;2023-09-19T12:05:07;4.47;;;1.70;;
80961;SDS011;70424;55.154;14.722;2023-09-19T12:07:41;6.03;;;2.08;;
80961;SDS011;70424;55.154;14.722;2023-09-19T12:10:08;7.22;;;2.10;;
80961;SDS011;70424;55.154;14.722;2023-09-19T12:12:36;8.73;;;2.35;;
80961;SDS011;70424;55.154;14.722;2023-09-19T12:15:02;4.25;;;1.80;;
80961;SDS011;70424;55.154;14.722;2023-09-19T12:17:38;8.15;;;2.53;;
80961;SDS011;70424;55.154;14.722;2023-09-19T12:20:07;7.30;;;2.60;;
80961;SDS011;70424;55.154;14.722;2023-09-19T12:22:43;5.85;;;2.10;;
80961;SDS011;70424;55.154;14.722;2023-09-19T12:25:09;5.18;;;2.00;;
80961;SDS011;70424;55.154;14.722;2023-09-19T12:30:12;5.97;;;2.00;;
80961;SDS011;70424;55.154;14.722;2023-09-19T12:35:06;7.20;;;2.35;;
80961;SDS011;70424;55.154;14.722;2023-09-19T12:37:42;6.10;;;2.00;;
80961;SDS011;70424;55.154;14.722;2023-09-19T12:40:10;5.93;;;2.30;;
80961;SDS011;70424;55.154;14.722;2023-09-19T12:42:42;7.72;;;2.30;;
80961;SDS011;70424;55.154;14.722;2023-09-19T12:45:11;8.25;;;2.30;;
80961;SDS011;70424;55.154;14.722;2023-09-19T12:47:38;8.25;;;2.47;;
80961;SDS011;70424;55.154;14.722;2023-09-19T12:50:09;6.80;;;2.30;;
80961;SDS011;70424;55.154;14.722;2023-09-19T12:52:56;8.45;;;2.30;;
80961;SDS011;70424;55.154;14.722;2023-09-19T12:55:25;10.47;;;2.53;;
80961;SDS011;70424;55.154;14.722;2023-09-19T13:08:35;7.30;;;2.42;;
80961;SDS011;70424;55.154;14.722;2023-09-19T13:15:06;7.05;;;2.17;;
80961;SDS011;70424;55.154;14.722;2023-09-19T13:16:54;6.93;;;2.47;;
80961;SDS011;70424;55.154;14.722;2023-09-19T13:19:36;6.38;;;2.67;;
80961;SDS011;70424;55.154;14.722;2023-09-19T13:25:19;8.70;;;2.63;;
80961;SDS011;70424;55.154;14.722;2023-09-19T13:27:52;6.53;;;2.22;;
80961;SDS011;70424;55.154;14.722;2023-09-19T13:30:21;6.90;;;2.70;;
80961;SDS011;70424;55.154;14.722;2023-09-19T13:35:14;9.87;;;2.77;;
80961;SDS011;70424;55.154;14.722;2023-09-19T13:37:40;6.32;;;2.60;;
80961;SDS011;70424;55.154;14.722;2023-09-19T13:40:11;9.32;;;2.75;;
80961;SDS011;70424;55.154;14.722;2023-09-19T13:42:37;8.10;;;2.30;;
80961;SDS011;70424;55.154;14.722;2023-09-19T13:45:03;6.68;;;2.30;;
80961;SDS011;70424;55.154;14.722;2023-09-19T13:47:32;6.63;;;2.75;;
80961;SDS011;70424;55.154;14.722;2023-09-19T13:49:58;7.93;;;2.63;;
80961;SDS011;70424;55.154;14.722;2023-09-19T13:52:25;6.82;;;2.13;;
80961;SDS011;70424;55.154;14.722;2023-09-19T13:54:53;8.32;;;2.65;;
80961;SDS011;70424;55.154;14.722;2023-09-19T13:57:19;6.88;;;2.40;;
80961;SDS011;70424;55.154;14.722;2023-09-19T13:59:44;6.63;;;2.30;;
80961;SDS011;70424;55.154;14.722;2023-09-19T14:02:09;8.32;;;2.58;;
80961;SDS011;70424;55.154;14.722;2023-09-19T14:04:35;9.00;;;2.75;;
80961;SDS011;70424;55.154;14.722;2023-09-19T14:07:00;4.82;;;1.98;;
80961;SDS011;70424;55.154;14.722;2023-09-19T14:09:26;8.85;;;2.58;;
80961;SDS011;70424;55.154;14.722;2023-09-19T14:11:52;8.35;;;2.90;;
80961;SDS011;70424;55.154;14.722;2023-09-19T14:14:20;8.20;;;2.60;;
80961;SDS011;70424;55.154;14.722;2023-09-19T14:16:49;6.03;;;2.45;;
80961;SDS011;70424;55.154;14.722;2023-09-19T14:19:14;7.90;;;2.38;;
80961;SDS011;70424;55.154;14.722;2023-09-19T14:21:41;7.90;;;2.17;;
80961;SDS011;70424;55.154;14.722;2023-09-19T14:24:07;7.95;;;2.40;;
80961;SDS011;70424;55.154;14.722;2023-09-19T14:26:37;8.18;;;2.53;;
80961;SDS011;70424;55.154;14.722;2023-09-19T14:29:03;7.22;;;2.28;;
80961;SDS011;70424;55.154;14.722;2023-09-19T14:31:28;8.68;;;2.17;;
80961;SDS011;70424;55.154;14.722;2023-09-19T14:33:54;7.82;;;2.22;;
80961;SDS011;70424;55.154;14.722;2023-09-19T14:36:24;6.60;;;1.95;;
80961;SDS011;70424;55.154;14.722;2023-09-19T14:38:52;7.22;;;2.35;;
80961;SDS011;70424;55.154;14.722;2023-09-19T14:41:22;7.38;;;2.05;;
80961;SDS011;70424;55.154;14.722;2023-09-19T14:43:50;5.72;;;2.30;;
80961;SDS011;70424;55.154;14.722;2023-09-19T14:46:20;10.98;;;2.55;;
80961;SDS011;70424;55.154;14.722;2023-09-19T14:48:46;8.32;;;2.38;;
80961;SDS011;70424;55.154;14.722;2023-09-19T14:51:12;8.25;;;2.65;;
80961;SDS011;70424;55.154;14.722;2023-09-19T14:53:38;6.22;;;2.38;;
80961;SDS011;70424;55.154;14.722;2023-09-19T14:56:08;6.03;;;2.10;;
80961;SDS011;70424;55.154;14.722;2023-09-19T14:58:34;7.28;;;2.20;;
80961;SDS011;70424;55.154;14.722;2023-09-19T15:01:04;10.77;;;2.63;;
80961;SDS011;70424;55.154;14.722;2023-09-19T15:03:31;7.85;;;2.50;;
80961;SDS011;70424;55.154;14.722;2023-09-19T15:06:01;8.88;;;2.60;;
80961;SDS011;70424;55.154;14.722;2023-09-19T15:08:27;9.20;;;2.50;;
80961;SDS011;70424;55.154;14.722;2023-09-19T15:10:52;9.52;;;2.70;;
80961;SDS011;70424;55.154;14.722;2023-09-19T15:13:18;9.60;;;2.75;;
80961;SDS011;70424;55.154;14.722;2023-09-19T15:15:44;6.88;;;2.47;;
80961;SDS011;70424;55.154;14.722;2023-09-19T15:18:12;6.88;;;2.33;;
80961;SDS011;70424;55.154;14.722;2023-09-19T15:20:42;7.32;;;2.45;;
80961;SDS011;70424;55.154;14.722;2023-09-19T15:23:11;10.10;;;2.85;;
80961;SDS011;70424;55.154;14.722;2023-09-19T15:25:38;6.60;;;2.40;;
80961;SDS011;70424;55.154;14.722;2023-09-19T15:28:05;7.35;;;2.17;;
80961;SDS011;70424;55.154;14.722;2023-09-19T15:30:36;9.23;;;2.63;;
80961;SDS011;70424;55.154;14.722;2023-09-19T15:33:03;9.25;;;2.50;;
80961;SDS011;70424;55.154;14.722;2023-09-19T15:35:28;7.35;;;2.50;;
80961;SDS011;70424;55.154;14.722;2023-09-19T15:37:54;7.55;;;2.50;;
80961;SDS011;70424;55.154;14.722;2023-09-19T15:40:21;6.57;;;2.43;;
80961;SDS011;70424;55.154;14.722;2023-09-19T15:42:48;6.35;;;2.38;;
80961;SDS011;70424;55.154;14.722;2023-09-19T15:45:14;9.88;;;2.42;;
80961;SDS011;70424;55.154;14.722;2023-09-19T15:47:41;7.45;;;2.88;;
80961;SDS011;70424;55.154;14.722;2023-09-19T15:50:07;6.95;;;2.60;;
80961;SDS011;70424;55.154;14.722;2023-09-19T15:52:39;8.05;;;2.30;;
80961;SDS011;70424;55.154;14.722;2023-09-19T15:55:05;6.22;;;2.50;;
80961;SDS011;70424;55.154;14.722;2023-09-19T15:57:31;7.57;;;2.63;;